Time;durP1;ratioP1;P1;durP2;ratioP2;P2;SDS_P1;SDS_P2;PMS_P1;PMS_P2;Temp;Humidity;BMP_temperature;BMP_pressure;BME280_temperature;BME280_humidity;BME280_pressure;Samples;Min_cycle;Max_cycle;Signal;HPM_P1;HPM_P2
2023/11/17 00:01:49;;;;;;;3.27;1.60;;;;;;;2.27;100.00;100783.63;7375188;19;20490;-47
2023/11/17 00:04:21;;;;;;;6.60;1.23;;;;;;;2.26;100.00;100797.13;7398022;19;20479;-47
2023/11/17 00:06:51;;;;;;;3.00;1.30;;;;;;;2.28;100.00;100799.81;7373198;19;20998;-46
2023/11/17 00:09:20;;;;;;;3.47;1.80;;;;;;;2.29;100.00;100797.38;7400168;19;20431;-49
2023/11/17 00:11:50;;;;;;;3.13;1.20;;;;;;;2.25;100.00;100797.91;7374495;19;20431;-45
2023/11/17 00:14:20;;;;;;;2.87;1.47;;;;;;;2.32;100.00;100800.91;7398113;19;20403;-48
2023/11/17 00:16:49;;;;;;;3.57;1.50;;;;;;;2.32;100.00;100806.00;7373929;19;20459;-45
2023/11/17 00:19:22;;;;;;;2.90;1.33;;;;;;;2.33;100.00;100813.78;7400146;19;20411;-44
2023/11/17 00:21:51;;;;;;;3.57;1.67;;;;;;;2.24;100.00;100808.88;7376079;19;21058;-45
2023/11/17 00:24:21;;;;;;;2.73;1.43;;;;;;;2.25;100.00;100815.72;7397696;19;20415;-48
2023/11/17 00:26:51;;;;;;;8.00;2.27;;;;;;;2.27;100.00;100824.34;7375475;19;20454;-51
2023/11/17 00:29:21;;;;;;;3.20;1.30;;;;;;;2.23;100.00;100818.94;7400437;19;20403;-52
2023/11/17 00:31:52;;;;;;;3.33;1.60;;;;;;;2.19;100.00;100825.44;7373856;19;20447;-51
2023/11/17 00:34:24;;;;;;;3.03;1.30;;;;;;;2.14;100.00;100827.66;7400393;19;21265;-50
2023/11/17 00:36:54;;;;;;;4.00;1.30;;;;;;;2.19;100.00;100816.94;7373302;19;20463;-50
2023/11/17 00:39:28;;;;;;;2.60;1.07;;;;;;;2.22;100.00;100827.34;7398072;19;20436;-49
2023/11/17 00:41:58;;;;;;;4.37;1.47;;;;;;;2.20;100.00;100828.88;7375016;19;20487;-46
2023/11/17 00:44:28;;;;;;;2.60;1.23;;;;;;;2.18;100.00;100828.75;7398026;19;20407;-47
2023/11/17 00:46:58;;;;;;;3.30;1.27;;;;;;;2.19;100.00;100833.09;7372996;19;20862;-52
2023/11/17 00:49:31;;;;;;;2.80;1.47;;;;;;;2.23;100.00;100837.66;7397099;19;20412;-46
2023/11/17 00:52:01;;;;;;;2.87;1.37;;;;;;;2.28;100.00;100838.91;7373516;19;21027;-50
2023/11/17 00:54:36;;;;;;;2.77;1.30;;;;;;;2.24;100.00;100834.31;7397809;19;20383;-51
2023/11/17 00:57:05;;;;;;;3.10;1.17;;;;;;;2.19;100.00;100834.75;7373571;19;20450;-49
2023/11/17 00:59:35;;;;;;;2.83;1.30;;;;;;;2.25;100.00;100841.19;7399636;19;20471;-49
2023/11/17 01:02:05;;;;;;;3.10;1.40;;;;;;;2.28;100.00;100840.53;7374055;19;21022;-47
2023/11/17 01:04:37;;;;;;;2.90;1.17;;;;;;;2.25;100.00;100836.09;7400287;19;20395;-44
2023/11/17 01:07:07;;;;;;;8.47;1.50;;;;;;;2.22;100.00;100843.53;7369743;19;20823;-46
2023/11/17 01:09:37;;;;;;;5.77;1.97;;;;;;;2.27;100.00;100839.63;7396687;19;20403;-50
2023/11/17 01:12:07;;;;;;;2.70;1.40;;;;;;;2.38;100.00;100847.22;7373106;19;21085;-49
2023/11/17 01:14:36;;;;;;;3.63;1.30;;;;;;;2.28;100.00;100841.44;7400076;19;20408;-46
2023/11/17 01:17:11;;;;;;;3.07;1.30;;;;;;;2.35;100.00;100849.56;7372121;19;20451;-51
2023/11/17 01:19:45;;;;;;;3.70;1.37;;;;;;;2.34;100.00;100855.38;7397000;19;20411;-46
2023/11/17 01:22:15;;;;;;;2.50;1.30;;;;;;;2.22;100.00;100852.81;7374922;19;20426;-51
2023/11/17 01:24:44;;;;;;;3.67;1.40;;;;;;;2.27;100.00;100860.00;7399520;19;20399;-46
2023/11/17 01:27:15;;;;;;;2.30;1.03;;;;;;;2.28;100.00;100854.19;7372661;19;20885;-47
2023/11/17 01:29:45;;;;;;;3.77;1.37;;;;;;;2.36;100.00;100858.97;7399099;19;20420;-52
2023/11/17 01:32:15;;;;;;;2.77;1.37;;;;;;;2.36;100.00;100866.59;7373054;19;20431;-48
2023/11/17 01:34:47;;;;;;;3.20;1.30;;;;;;;2.33;100.00;100863.81;7399131;19;20424;-48
2023/11/17 01:37:17;;;;;;;3.07;1.40;;;;;;;2.32;100.00;100862.03;7371692;19;20459;-46
2023/11/17 01:39:46;;;;;;;2.87;1.37;;;;;;;2.31;100.00;100867.91;7394342;19;20407;-46
2023/11/17 01:42:16;;;;;;;2.90;1.50;;;;;;;2.36;100.00;100864.06;7374361;19;20437;-49
2023/11/17 01:44:46;;;;;;;3.00;1.50;;;;;;;2.38;100.00;100877.78;7398877;19;20398;-47
2023/11/17 01:47:16;;;;;;;2.50;1.20;;;;;;;2.33;100.00;100871.44;7372337;19;20444;-46
2023/11/17 01:49:48;;;;;;;3.17;1.43;;;;;;;2.42;100.00;100869.63;7396121;19;20463;-45
2023/11/17 01:52:18;;;;;;;3.00;1.20;;;;;;;2.44;100.00;100880.81;7373698;19;21075;-54
2023/11/17 01:54:49;;;;;;;3.83;1.70;;;;;;;2.43;100.00;100881.56;7395302;19;20403;-48
2023/11/17 01:57:21;;;;;;;2.57;1.20;;;;;;;2.43;100.00;100876.47;7372426;19;20459;-46
2023/11/17 01:59:52;;;;;;;5.07;1.60;;;;;;;2.38;100.00;100880.34;7394519;19;20407;-51
2023/11/17 02:02:22;;;;;;;4.17;1.50;;;;;;;2.41;100.00;100878.03;7373183;19;20434;-47
2023/11/17 02:04:54;;;;;;;4.97;1.53;;;;;;;2.39;100.00;100889.75;7396493;19;20943;-52
2023/11/17 02:07:28;;;;;;;3.37;1.40;;;;;;;2.43;100.00;100876.47;7370497;19;20557;-48
2023/11/17 02:10:13;;;;;;;2.87;1.33;;;;;;;2.32;100.00;100869.69;7394122;19;20415;-47
2023/11/17 02:12:52;;;;;;;3.63;1.70;;;;;;;2.34;100.00;100886.84;7374181;19;20439;-49
2023/11/17 02:15:27;;;;;;;2.13;0.93;;;;;;;2.36;100.00;100892.06;7372681;19;20419;-48
2023/11/17 02:18:04;;;;;;;2.90;1.10;;;;;;;2.36;100.00;100894.63;7393434;19;20517;-50
2023/11/17 02:20:37;;;;;;;2.73;1.43;;;;;;;2.39;100.00;100899.94;7371636;19;20470;-47
2023/11/17 02:23:10;;;;;;;2.80;1.33;;;;;;;2.44;100.00;100903.72;7395038;19;20417;-50
2023/11/17 02:25:50;;;;;;;2.53;1.13;;;;;;;2.36;100.00;100902.25;7372845;19;20411;-46
2023/11/17 02:28:30;;;;;;;2.67;1.20;;;;;;;2.41;100.00;100903.50;7394179;19;20424;-45
2023/11/17 02:31:14;;;;;;;3.20;1.60;;;;;;;2.39;100.00;100905.94;7371873;19;20427;-50
2023/11/17 02:33:48;;;;;;;3.40;1.30;;;;;;;2.34;100.00;100904.69;7395355;19;20412;-46
2023/11/17 02:36:22;;;;;;;2.87;1.23;;;;;;;2.32;100.00;100910.41;7371455;19;20446;-49
2023/11/17 02:38:56;;;;;;;2.83;1.37;;;;;;;2.32;100.00;100918.97;7392229;19;20427;-47
2023/11/17 02:41:32;;;;;;;3.13;1.37;;;;;;;2.36;100.00;100920.09;7371243;19;20421;-46
2023/11/17 02:44:11;;;;;;;2.80;1.23;;;;;;;2.34;100.00;100919.06;7393267;19;20814;-45
2023/11/17 02:46:44;;;;;;;2.73;1.40;;;;;;;2.34;100.00;100924.16;7371291;19;21042;-53
2023/11/17 02:49:22;;;;;;;3.23;1.50;;;;;;;2.34;100.00;100921.59;7393414;19;20411;-48
2023/11/17 02:51:53;;;;;;;3.53;1.47;;;;;;;2.39;100.00;100927.94;7371545;19;20423;-53
2023/11/17 02:54:23;;;;;;;3.90;1.33;;;;;;;2.38;100.00;100927.06;7394128;19;20769;-46
2023/11/17 02:56:53;;;;;;;3.33;1.60;;;;;;;2.39;100.00;100922.84;7369610;19;20455;-50
2023/11/17 02:59:24;;;;;;;5.30;1.97;;;;;;;2.34;100.00;100919.97;7389382;19;20402;-46
2023/11/17 03:01:56;;;;;;;3.60;1.63;;;;;;;2.34;100.00;100919.06;7371221;19;20440;-47
2023/11/17 03:04:26;;;;;;;10.43;2.07;;;;;;;2.31;100.00;100914.66;7394234;19;20419;-53
2023/11/17 03:06:56;;;;;;;4.43;1.70;;;;;;;2.38;100.00;100913.44;7367961;19;20522;-47
2023/11/17 03:09:26;;;;;;;4.57;1.57;;;;;;;2.31;100.00;100926.47;7394979;19;20407;-50
2023/11/17 03:11:56;;;;;;;4.10;1.40;;;;;;;2.34;100.00;100924.16;7371004;19;20455;-51
2023/11/17 03:14:29;;;;;;;3.00;1.50;;;;;;;2.40;100.00;100933.16;7393840;19;20486;-49
2023/11/17 03:17:02;;;;;;;3.53;1.70;;;;;;;2.41;100.00;100931.53;7369079;19;20459;-50
2023/11/17 03:19:32;;;;;;;5.13;2.13;;;;;;;2.43;100.00;100932.53;7393380;19;20407;-52
2023/11/17 03:22:03;;;;;;;3.57;1.70;;;;;;;2.39;100.00;100931.41;7370130;19;20982;-51
2023/11/17 03:24:34;;;;;;;3.00;1.47;;;;;;;2.36;100.00;100932.81;7395090;19;20755;-50
2023/11/17 03:27:04;;;;;;;3.17;1.50;;;;;;;2.36;100.00;100932.81;7368897;19;20467;-49
2023/11/17 03:29:33;;;;;;;3.00;1.50;;;;;;;2.31;100.00;100932.47;7394785;19;20404;-48
2023/11/17 03:32:07;;;;;;;4.90;1.77;;;;;;;2.31;100.00;100926.47;7380913;19;20502;-50
2023/11/17 03:34:37;;;;;;;5.87;1.67;;;;;;;2.31;100.00;100932.47;7407453;19;20833;-48
2023/11/17 03:37:07;;;;;;;3.63;2.13;;;;;;;2.34;100.00;100936.88;7382511;19;20542;-48
2023/11/17 03:39:41;;;;;;;2.97;1.30;;;;;;;2.33;100.00;100938.56;7409241;19;20403;-48
2023/11/17 03:42:12;;;;;;;3.17;1.60;;;;;;;2.33;100.00;100947.84;7384691;19;20834;-53
2023/11/17 03:44:42;;;;;;;6.60;1.70;;;;;;;2.33;100.00;100951.28;7406762;19;20419;-47
2023/11/17 03:47:15;;;;;;;3.87;1.90;;;;;;;2.36;100.00;100960.84;7383268;19;20526;-46
2023/11/17 03:49:47;;;;;;;3.07;1.30;;;;;;;2.37;100.00;100962.59;7406736;19;20432;-49
2023/11/17 03:52:21;;;;;;;2.93;1.40;;;;;;;2.34;100.00;100964.91;7384982;19;20451;-48
2023/11/17 03:54:51;;;;;;;3.83;1.70;;;;;;;2.30;100.00;100961.22;7405797;19;20854;-47
2023/11/17 03:57:21;;;;;;;4.53;2.13;;;;;;;2.29;100.00;100962.91;7382919;19;20466;-47
2023/11/17 03:59:53;;;;;;;2.80;1.40;;;;;;;2.23;100.00;100972.59;7405783;19;20486;-48
2023/11/17 04:02:26;;;;;;;3.97;1.57;;;;;;;2.29;100.00;100968.00;7383371;19;20429;-54
2023/11/17 04:04:56;;;;;;;3.73;1.80;;;;;;;2.25;100.00;100976.16;7407372;19;20918;-52
2023/11/17 04:07:25;;;;;;;4.10;2.20;;;;;;;2.27;100.00;100977.16;7380486;19;20461;-47
2023/11/17 04:09:55;;;;;;;3.10;1.67;;;;;;;2.31;100.00;100972.31;7404691;19;20504;-46
2023/11/17 04:12:24;;;;;;;5.00;2.43;;;;;;;2.29;100.00;100980.72;7383806;19;20455;-49
2023/11/17 04:14:54;;;;;;;3.57;1.77;;;;;;;2.32;100.00;100984.25;7405881;19;20483;-46
2023/11/17 04:17:26;;;;;;;3.20;1.70;;;;;;;2.31;100.00;100987.59;7382341;19;20530;-47
2023/11/17 04:19:56;;;;;;;4.40;1.83;;;;;;;2.34;100.00;100987.81;7404555;19;20427;-46
2023/11/17 04:22:25;;;;;;;6.10;2.40;;;;;;;2.31;100.00;100996.13;7383485;19;20427;-46
2023/11/17 04:24:56;;;;;;;4.53;2.00;;;;;;;2.29;100.00;101001.09;7406587;19;21000;-48
2023/11/17 04:27:25;;;;;;;4.47;1.80;;;;;;;2.29;100.00;101001.09;7381705;19;20458;-47
2023/11/17 04:29:55;;;;;;;3.80;1.80;;;;;;;2.33;100.00;100996.22;7404369;19;20403;-47
2023/11/17 04:32:27;;;;;;;3.70;1.87;;;;;;;2.29;100.00;101001.09;7383289;19;20438;-49
2023/11/17 04:34:57;;;;;;;4.57;2.00;;;;;;;2.26;100.00;101000.84;7405362;19;20409;-47
2023/11/17 04:37:27;;;;;;;3.37;1.83;;;;;;;2.25;100.00;100999.06;7381237;19;20462;-53
2023/11/17 04:39:57;;;;;;;4.30;1.93;;;;;;;2.20;100.00;101002.03;7403741;19;20419;-49
2023/11/17 04:42:27;;;;;;;4.77;1.93;;;;;;;2.26;100.00;100998.28;7378277;19;20415;-47
2023/11/17 04:44:57;;;;;;;3.23;1.90;;;;;;;2.32;100.00;101007.19;7396888;19;20411;-53
2023/11/17 04:47:33;;;;;;;3.60;1.80;;;;;;;2.29;100.00;101005.28;7373759;19;20463;-46
2023/11/17 04:50:03;;;;;;;3.93;2.07;;;;;;;2.23;100.00;101018.44;7399488;19;20427;-47
2023/11/17 04:52:34;;;;;;;3.90;1.93;;;;;;;2.22;100.00;101014.13;7376567;19;20441;-46
2023/11/17 04:55:05;;;;;;;6.40;1.60;;;;;;;2.31;100.00;101018.16;7397967;19;20799;-46
2023/11/17 04:57:37;;;;;;;4.67;2.20;;;;;;;2.23;100.00;101000.59;7374531;19;20449;-47
2023/11/17 05:00:08;;;;;;;3.93;2.00;;;;;;;2.29;100.00;101011.28;7396193;19;20411;-47
2023/11/17 05:02:41;;;;;;;3.30;1.77;;;;;;;2.28;100.00;101009.50;7376984;19;20447;-49
2023/11/17 05:05:11;;;;;;;5.07;2.37;;;;;;;2.28;100.00;101008.59;7384356;19;20523;-51
2023/11/17 05:07:43;;;;;;;5.43;2.33;;;;;;;2.26;100.00;101016.13;7397754;19;20444;-52
2023/11/17 05:10:14;;;;;;;4.00;1.90;;;;;;;2.22;100.00;101018.31;7372903;19;20415;-46
2023/11/17 05:12:44;;;;;;;9.10;5.07;;;;;;;2.28;100.00;101013.69;7396315;19;20791;-48
2023/11/17 05:15:14;;;;;;;11.67;4.70;;;;;;;2.34;100.00;101029.47;7373733;19;20428;-50
2023/11/17 05:17:48;;;;;;;4.37;2.43;;;;;;;2.24;100.00;101021.84;7395987;19;20446;-48
2023/11/17 05:20:19;;;;;;;4.07;2.00;;;;;;;2.25;100.00;101024.53;7373382;19;20382;-47
2023/11/17 05:22:52;;;;;;;5.20;2.33;;;;;;;2.20;100.00;101030.91;7396866;19;20399;-46
2023/11/17 05:25:21;;;;;;;5.37;2.20;;;;;;;2.26;100.00;101023.75;7373898;19;20408;-46
2023/11/17 05:27:51;;;;;;;3.40;1.83;;;;;;;2.39;100.00;101033.28;7394370;19;20984;-47
2023/11/17 05:30:21;;;;;;;4.87;2.27;;;;;;;2.40;100.00;101027.41;7376008;19;20399;-46
2023/11/17 05:32:53;;;;;;;4.10;1.93;;;;;;;2.33;100.00;101035.34;7393880;19;20401;-46
2023/11/17 05:35:23;;;;;;;4.30;2.40;;;;;;;2.33;100.00;101026.78;7373744;19;20479;-46
2023/11/17 05:37:52;;;;;;;5.37;1.70;;;;;;;2.32;100.00;101033.56;7394239;19;20435;-48
2023/11/17 05:40:22;;;;;;;4.20;2.40;;;;;;;2.28;100.00;101037.53;7375104;19;20793;-45
2023/11/17 05:42:52;;;;;;;6.03;2.20;;;;;;;2.28;100.00;101034.06;7395591;19;20403;-51
2023/11/17 05:45:22;;;;;;;5.10;2.30;;;;;;;2.24;100.00;101040.56;7373290;19;20441;-49
2023/11/17 05:47:54;;;;;;;4.60;2.40;;;;;;;2.23;100.00;101033.72;7394073;19;20443;-47
2023/11/17 05:50:23;;;;;;;5.83;2.60;;;;;;;2.20;100.00;101036.00;7372390;19;20755;-53
2023/11/17 05:52:53;;;;;;;4.20;2.30;;;;;;;2.19;100.00;101041.00;7392117;19;20411;-48
2023/11/17 05:55:23;;;;;;;3.83;2.10;;;;;;;2.18;100.00;101035.00;7368853;19;20490;-46
2023/11/17 05:57:52;;;;;;;4.77;2.20;;;;;;;2.27;100.00;101032.28;7394666;19;20542;-49
2023/11/17 06:00:27;;;;;;;5.17;2.50;;;;;;;2.20;100.00;101037.66;7372536;19;20411;-50
2023/11/17 06:02:59;;;;;;;7.63;2.13;;;;;;;2.16;100.00;101039.94;7393983;19;20411;-47
2023/11/17 06:05:29;;;;;;;10.43;4.10;;;;;;;2.21;100.00;101040.31;7371173;19;20403;-47
2023/11/17 06:07:59;;;;;;;11.20;4.30;;;;;;;2.25;100.00;101050.00;7393332;19;20454;-51
2023/11/17 06:10:29;;;;;;;38.60;16.60;;;;;;;3.03;100.00;101044.94;7371804;19;20487;-48
2023/11/17 06:12:58;;;;;;;6.97;3.03;;;;;;;2.67;100.00;101049.84;7390480;19;20403;-49
2023/11/17 06:15:31;;;;;;;7.20;3.27;;;;;;;2.51;100.00;101058.81;7372211;19;20415;-47
2023/11/17 06:18:07;;;;;;;7.47;4.13;;;;;;;2.72;100.00;101045.09;7393655;19;20780;-49
2023/11/17 06:20:39;;;;;;;9.37;5.17;;;;;;;3.21;100.00;101055.63;7372531;19;20398;-50
2023/11/17 06:23:09;;;;;;;6.07;3.27;;;;;;;3.18;100.00;101061.38;7393367;19;20408;-46
2023/11/17 06:25:39;;;;;;;5.40;3.07;;;;;;;2.89;100.00;101057.50;7373055;19;20749;-46
2023/11/17 06:28:09;;;;;;;10.63;4.30;;;;;;;2.73;100.00;101065.63;7393405;19;20456;-49
2023/11/17 06:30:38;;;;;;;3.73;2.00;;;;;;;2.53;100.00;101072.59;7371521;19;20942;-52
2023/11/17 06:33:11;;;;;;;4.10;2.20;;;;;;;2.36;100.00;101067.78;7394286;19;20432;-49
2023/11/17 06:35:40;;;;;;;6.90;3.00;;;;;;;2.38;100.00;101068.81;7372623;19;20423;-46
2023/11/17 06:38:10;;;;;;;5.70;2.40;;;;;;;2.37;100.00;101074.66;7392519;19;20950;-49
2023/11/17 06:40:40;;;;;;;4.07;2.00;;;;;;;2.34;100.00;101076.94;7369945;19;20399;-46
2023/11/17 06:43:09;;;;;;;4.57;2.10;;;;;;;2.27;100.00;101089.19;7393759;19;20499;-48
2023/11/17 06:45:39;;;;;;;3.90;2.03;;;;;;;2.16;100.00;101088.31;7371596;19;20972;-50
2023/11/17 06:48:13;;;;;;;5.60;2.60;;;;;;;2.15;100.00;101090.75;7393163;19;20444;-48
2023/11/17 06:50:42;;;;;;;12.60;4.93;;;;;;;2.24;100.00;101100.78;7371754;19;20391;-46
2023/11/17 06:53:13;;;;;;;4.17;2.10;;;;;;;2.21;100.00;101093.78;7392798;19;20399;-46
2023/11/17 06:55:43;;;;;;;8.20;3.70;;;;;;;2.09;100.00;101102.97;7370793;19;20391;-46
2023/11/17 06:58:13;;;;;;;3.53;1.80;;;;;;;2.05;100.00;101106.06;7393958;19;20395;-46
2023/11/17 07:00:42;;;;;;;12.20;5.03;;;;;;;2.12;100.00;101104.16;7369894;19;20399;-48
2023/11/17 07:03:15;;;;;;;4.40;2.40;;;;;;;2.12;100.00;101115.97;7393776;19;20406;-46
2023/11/17 07:05:46;;;;;;;5.80;2.17;;;;;;;2.07;100.00;101109.59;7369325;19;20431;-46
2023/11/17 07:08:17;;;;;;;11.23;3.40;;;;;;;2.11;100.00;101107.44;7390488;19;20944;-49
2023/11/17 07:10:47;;;;;;;3.80;1.80;;;;;;;2.09;100.00;101108.06;7370461;19;20403;-46
2023/11/17 07:13:17;;;;;;;6.83;2.80;;;;;;;1.99;100.00;101116.59;7391923;19;20463;-46
2023/11/17 07:15:48;;;;;;;6.90;3.20;;;;;;;2.07;100.00;101119.78;7370746;19;20450;-50
2023/11/17 07:18:20;;;;;;;8.37;2.90;;;;;;;2.09;100.00;101125.88;7392539;19;20416;-49
2023/11/17 07:20:52;;;;;;;8.10;3.50;;;;;;;2.21;100.00;101128.56;7369575;19;20435;-47
2023/11/17 07:23:22;;;;;;;4.23;2.30;;;;;;;2.12;100.00;101124.50;7392535;19;20487;-47
2023/11/17 07:25:51;;;;;;;4.80;2.43;;;;;;;2.08;100.00;101136.84;7370551;19;20435;-47
2023/11/17 07:28:21;;;;;;;5.03;2.30;;;;;;;2.06;100.00;101138.38;7394336;19;20408;-48
2023/11/17 07:30:51;;;;;;;5.17;2.40;;;;;;;2.07;100.00;101129.97;7367894;19;20418;-47
2023/11/17 07:33:23;;;;;;;6.20;2.30;;;;;;;2.11;100.00;101137.09;7393959;19;20422;-47
2023/11/17 07:35:53;;;;;;;4.47;2.47;;;;;;;2.06;100.00;101140.94;7368300;19;20415;-48
2023/11/17 07:38:22;;;;;;;3.90;2.10;;;;;;;2.02;100.00;101133.03;7393138;19;20422;-50
2023/11/17 07:40:52;;;;;;;4.70;2.13;;;;;;;2.06;100.00;101133.28;7364509;19;20449;-46
2023/11/17 07:43:22;;;;;;;3.80;1.83;;;;;;;1.98;100.00;101136.09;7391430;19;20502;-47
2023/11/17 07:45:51;;;;;;;3.93;1.90;;;;;;;1.96;100.00;101132.53;7369884;19;20423;-46
2023/11/17 07:48:23;;;;;;;4.27;1.90;;;;;;;1.87;100.00;101145.41;7392345;19;20401;-47
2023/11/17 07:50:53;;;;;;;4.33;1.97;;;;;;;1.91;100.00;101138.91;7369948;19;20426;-46
2023/11/17 07:53:23;;;;;;;83.43;31.53;;;;;;;2.46;100.00;101141.63;7390858;19;20424;-48
2023/11/17 07:55:55;;;;;;;42.27;18.13;;;;;;;3.00;100.00;101139.91;7367109;19;21061;-47
2023/11/17 07:58:26;;;;;;;6.83;2.87;;;;;;;2.91;100.00;101139.16;7391088;19;20956;-56
2023/11/17 08:00:58;;;;;;;13.60;5.87;;;;;;;2.45;100.00;101142.38;7369868;19;20435;-46
2023/11/17 08:03:30;;;;;;;10.30;4.60;;;;;;;2.78;100.00;101150.94;7393655;19;20399;-47
2023/11/17 08:06:00;;;;;;;5.47;2.60;;;;;;;2.67;100.00;101144.13;7366862;19;20415;-47
2023/11/17 08:08:29;;;;;;;16.13;5.30;;;;;;;2.86;100.00;101143.03;7392374;19;20462;-47
2023/11/17 08:10:59;;;;;;;8.60;4.07;;;;;;;2.70;100.00;101146.91;7366083;19;20514;-47
2023/11/17 08:13:29;;;;;;;13.70;6.03;;;;;;;2.65;100.00;101158.38;7390493;19;20572;-47
2023/11/17 08:15:59;;;;;;;5.87;3.20;;;;;;;2.76;100.00;101157.59;7368539;19;20965;-51
2023/11/17 08:18:33;;;;;;;6.07;3.47;;;;;;;2.74;100.00;101161.69;7399175;19;20949;-47
2023/11/17 08:21:05;;;;;;;7.13;4.20;;;;;;;2.82;100.00;101170.81;7375608;19;20886;-52
2023/11/17 08:23:35;;;;;;;20.03;7.70;;;;;;;2.53;100.00;101182.13;7397654;19;21013;-47
2023/11/17 08:26:06;;;;;;;7.60;3.70;;;;;;;2.48;100.00;101185.03;7374416;19;20473;-49
2023/11/17 08:28:35;;;;;;;6.17;3.70;;;;;;;2.43;100.00;101190.66;7395282;19;20419;-47
2023/11/17 08:31:06;;;;;;;9.80;4.90;;;;;;;2.35;100.00;101198.47;7373793;19;20494;-48
2023/11/17 08:33:38;;;;;;;11.80;5.00;;;;;;;2.26;100.00;101204.56;7398033;19;20777;-50
2023/11/17 08:36:10;;;;;;;7.80;3.80;;;;;;;2.28;100.00;101205.59;7373442;19;20461;-49
2023/11/17 08:38:41;;;;;;;6.40;3.50;;;;;;;2.25;100.00;101207.88;7397550;19;20412;-49
2023/11/17 08:41:12;;;;;;;6.17;3.97;;;;;;;2.38;100.00;101209.78;7375963;19;20447;-48
2023/11/17 08:43:42;;;;;;;8.20;5.27;;;;;;;2.44;100.00;101214.47;7397872;19;20407;-50
2023/11/17 08:46:12;;;;;;;11.20;5.67;;;;;;;2.36;100.00;101215.50;7373700;19;20487;-51
2023/11/17 08:48:44;;;;;;;8.70;4.20;;;;;;;2.34;100.00;101217.03;7396821;19;20424;-50
2023/11/17 08:51:14;;;;;;;7.10;4.60;;;;;;;2.25;100.00;101222.28;7376133;19;20418;-47
2023/11/17 08:53:43;;;;;;;10.93;5.33;;;;;;;2.32;100.00;101221.09;7396882;19;20416;-50
2023/11/17 08:56:13;;;;;;;7.00;4.40;;;;;;;2.37;100.00;101222.38;7373758;19;20481;-52
2023/11/17 08:58:43;;;;;;;8.57;5.20;;;;;;;2.38;100.00;101224.16;7392138;19;20411;-49
2023/11/17 09:01:13;;;;;;;7.87;4.83;;;;;;;2.35;100.00;101223.94;7370003;19;20443;-49
2023/11/17 09:03:47;;;;;;;7.73;4.83;;;;;;;2.41;100.00;101224.44;7394814;19;20428;-50
2023/11/17 09:06:18;;;;;;;8.50;4.70;;;;;;;2.37;100.00;101220.72;7371114;19;20856;-48
2023/11/17 09:08:47;;;;;;;7.87;4.57;;;;;;;2.42;100.00;101232.16;7395317;19;20407;-50
2023/11/17 09:11:17;;;;;;;43.67;14.50;;;;;;;2.50;100.00;101220.06;7374876;19;21064;-49
2023/11/17 09:13:46;;;;;;;10.63;3.90;;;;;;;2.47;100.00;101235.13;7399631;19;20400;-51
2023/11/17 09:16:16;;;;;;;5.13;3.07;;;;;;;2.43;100.00;101238.19;7372491;19;20478;-47
2023/11/17 09:18:49;;;;;;;4.70;2.60;;;;;;;2.42;100.00;101244.03;7395379;19;20950;-51
2023/11/17 09:21:18;;;;;;;3.93;2.13;;;;;;;2.47;100.00;101245.31;7372866;19;20419;-47
2023/11/17 09:23:48;;;;;;;4.83;2.50;;;;;;;2.56;100.00;101248.59;7396650;19;20424;-48
2023/11/17 09:26:17;;;;;;;38.20;14.67;;;;;;;2.64;100.00;101238.13;7373810;19;20894;-53
2023/11/17 09:28:47;;;;;;;4.73;2.80;;;;;;;2.53;100.00;101250.00;7394444;19;20412;-51
2023/11/17 09:31:17;;;;;;;8.87;2.97;;;;;;;2.65;100.00;101239.91;7372355;19;20411;-49
2023/11/17 09:33:49;;;;;;;3.63;1.90;;;;;;;2.56;100.00;101246.06;7398034;19;21015;-48
2023/11/17 09:36:19;;;;;;;54.63;16.50;;;;;;;2.69;100.00;101239.41;7372634;19;21509;-47
2023/11/17 09:38:49;;;;;;;22.03;7.00;;;;;;;2.66;100.00;101250.25;7394314;19;20851;-53
2023/11/17 09:41:19;;;;;;;3.47;1.67;;;;;;;2.57;100.00;101246.97;7371506;19;20442;-50
2023/11/17 09:43:50;;;;;;;5.67;2.40;;;;;;;2.61;100.00;101261.72;7397959;19;20795;-48
2023/11/17 09:46:24;;;;;;;12.00;4.83;;;;;;;2.67;100.00;101261.34;7372526;19;20530;-47
2023/11/17 09:49:02;;;;;;;5.00;1.87;;;;;;;2.63;100.00;101259.28;7394317;19;20435;-46
2023/11/17 09:51:33;;;;;;;5.73;2.30;;;;;;;2.65;100.00;101260.31;7373604;19;20431;-47
2023/11/17 09:54:04;;;;;;;4.43;2.07;;;;;;;2.73;100.00;101264.41;7395286;19;20412;-47
2023/11/17 09:56:34;;;;;;;4.90;2.13;;;;;;;2.76;100.00;101264.63;7372795;19;20447;-46
2023/11/17 09:59:04;;;;;;;5.80;2.13;;;;;;;2.83;100.00;101277.09;7394344;19;20417;-45
2023/11/17 10:01:36;;;;;;;4.53;2.13;;;;;;;2.89;100.00;101273.28;7371999;19;20475;-48
2023/11/17 10:04:09;;;;;;;4.03;1.70;;;;;;;2.83;100.00;101269.44;7395301;19;20443;-48
2023/11/17 10:06:41;;;;;;;17.00;5.30;;;;;;;2.89;100.00;101265.63;7369666;19;20459;-45
2023/11/17 10:09:12;;;;;;;3.43;1.53;;;;;;;2.84;100.00;101278.00;7391887;19;20427;-48
2023/11/17 10:11:42;;;;;;;2.90;1.60;;;;;;;2.89;100.00;101270.72;7372432;19;20419;-48
2023/11/17 10:14:12;;;;;;;4.20;2.17;;;;;;;2.93;100.00;101277.88;7394412;19;20476;-47
2023/11/17 10:16:42;;;;;;;5.70;2.37;;;;;;;2.91;100.00;101272.63;7372935;19;20535;-48
2023/11/17 10:19:18;;;;;;;6.67;2.43;;;;;;;3.07;100.00;101269.66;7393855;19;20403;-47
2023/11/17 10:21:48;;;;;;;5.27;2.60;;;;;;;3.14;100.00;101271.06;7374190;19;20447;-49
2023/11/17 10:24:21;;;;;;;3.57;1.40;;;;;;;3.25;100.00;101269.34;7395175;19;20436;-48
2023/11/17 10:26:51;;;;;;;4.97;1.60;;;;;;;3.33;100.00;101264.88;7371633;19;20455;-46
2023/11/17 10:29:21;;;;;;;6.20;2.53;;;;;;;3.23;100.00;101276.00;7396059;19;20407;-47
2023/11/17 10:31:52;;;;;;;7.33;2.47;;;;;;;3.36;100.00;101270.19;7372524;19;20857;-45
2023/11/17 10:34:24;;;;;;;2.10;1.00;;;;;;;3.48;100.00;101277.91;7394277;19;20479;-46
2023/11/17 10:36:58;;;;;;;4.50;1.97;;;;;;;3.51;100.00;101275.63;7369460;19;20535;-45
2023/11/17 10:39:28;;;;;;;3.83;1.50;;;;;;;3.49;100.00;101283.16;7391607;19;20425;-47
2023/11/17 10:41:57;;;;;;;5.40;2.57;;;;;;;3.51;100.00;101288.38;7366973;19;20431;-52
2023/11/17 10:44:38;;;;;;;11.33;3.20;;;;;;;3.58;100.00;101288.09;7391549;19;20479;-52
2023/11/17 10:47:09;;;;;;;4.87;2.10;;;;;;;3.61;100.00;101295.09;7367255;19;20455;-45
2023/11/17 10:49:42;;;;;;;4.60;1.57;;;;;;;3.50;100.00;101296.81;7391268;19;20820;-46
2023/11/17 10:52:11;;;;;;;5.13;2.10;;;;;;;3.56;100.00;101293.84;7369289;19;20438;-50
2023/11/17 10:54:47;;;;;;;8.37;3.07;;;;;;;3.61;100.00;101293.44;7391634;19;20404;-48
2023/11/17 10:57:18;;;;;;;3.27;1.43;;;;;;;3.63;100.00;101297.00;7367657;19;21111;-50
2023/11/17 10:59:47;;;;;;;3.57;1.47;;;;;;;3.60;100.00;101299.28;7391083;19;20407;-47
2023/11/17 11:02:29;;;;;;;3.83;1.63;;;;;;;3.77;100.00;101289.53;7368946;19;20431;-52
2023/11/17 11:05:05;;;;;;;5.70;2.23;;;;;;;3.78;100.00;101293.84;7390201;19;20428;-51
2023/11/17 11:07:43;;;;;;;8.97;3.13;;;;;;;3.85;100.00;101292.69;7368281;19;20479;-48
2023/11/17 11:10:15;;;;;;;5.20;1.70;;;;;;;3.88;100.00;101292.91;7369547;19;20478;-51
2023/11/17 11:12:48;;;;;;;3.93;1.70;;;;;;;3.88;100.00;101295.47;7390217;19;20408;-49
2023/11/17 11:15:18;;;;;;;4.07;1.37;;;;;;;3.95;100.00;101304.50;7370917;19;20472;-52
2023/11/17 11:17:54;;;;;;;3.90;1.83;;;;;;;3.87;100.00;101306.44;7390266;19;20443;-50
2023/11/17 11:20:27;;;;;;;10.40;4.20;;;;;;;4.03;100.00;101298.31;7370713;19;20407;-45
2023/11/17 11:22:57;;;;;;;3.93;1.50;;;;;;;3.97;100.00;101310.59;7392055;19;20482;-46
2023/11/17 11:25:28;;;;;;;4.00;1.50;;;;;;;3.98;100.00;101314.94;7367411;19;20487;-46
2023/11/17 11:28:00;;;;;;;10.57;3.50;;;;;;;4.12;100.00;101319.47;7387999;19;20434;-48
2023/11/17 11:30:30;;;;;;;5.83;1.60;;;;;;;4.11;100.00;101332.97;7369932;19;20439;-48
2023/11/17 11:33:00;;;;;;;3.37;1.50;;;;;;;4.10;100.00;101336.31;7388319;19;20408;-48
2023/11/17 11:35:33;;;;;;;7.10;2.43;;;;;;;4.10;100.00;101336.31;7370578;19;20738;-47
2023/11/17 11:38:04;;;;;;;3.10;1.43;;;;;;;4.13;100.00;101339.13;7251966;19;2719727;-48
2023/11/17 11:40:35;;;;;;;2.90;1.40;;;;;;;4.15;100.00;101346.91;7370082;19;20213;-45
2023/11/17 11:43:05;;;;;;;3.03;1.40;;;;;;;4.32;100.00;101340.53;7391194;19;20395;-48